KYIP/YIP METAR and TAF weather

Enter ICAO airport designator
Station Type Date Time Source
KYIP METAR 2019/02/22 21:53 UTC NOAA

KYIP 222153Z 14005KT 9SM CLR 03/M04 A3041 RMK AO2 SLP302 T00331039


Station Type Date Time Source
KYIP Decoded METAR 2019/02/22 21:53 UTC NOAA

WILLOW RUN AIRPORT, MI, United States (KYIP) 42-14N 083-32W 215M
Feb 22, 2019 - 04:53 PM EST / 2019.02.22 2153 UTC
Wind: from the SE (140 degrees) at 6 MPH (5 KT):0
Visibility: 9 mile(s):0
Sky conditions: clear
Temperature: 37.9 F (3.3 C)
Dew Point: 25.0 F (-3.9 C)
Relative Humidity: 59%
Pressure (altimeter): 30.41 in. Hg (1029 hPa)
ob: KYIP 222153Z 14005KT 9SM CLR 03/M04 A3041 RMK AO2 SLP302 T00331039
cycle: 22

Station Type Date Time Source
KYIP TAF 2019/02/22 18:30 UTC NOAA

TAF KYIP 221727Z 2218/2318 12005KT P6SM BKN250
FM230800 10010KT P6SM OVC100
FM231500 12010KT P6SM OVC040


Example: see airport list